sensor_id;sensor_type;location;lat;lon;timestamp;P1;durP1;ratioP1;P2;durP2;ratioP2
75716;SDS011;64333;50.138;14.332;2023-03-23T00:01:29;6.63;;;3.67;;
75716;SDS011;64333;50.138;14.332;2023-03-23T00:04:01;6.13;;;3.85;;
75716;SDS011;64333;50.138;14.332;2023-03-23T00:06:27;5.82;;;4.13;;
75716;SDS011;64333;50.138;14.332;2023-03-23T00:08:53;5.30;;;3.88;;
75716;SDS011;64333;50.138;14.332;2023-03-23T00:11:24;5.65;;;3.63;;
75716;SDS011;64333;50.138;14.332;2023-03-23T00:13:51;6.55;;;4.05;;
75716;SDS011;64333;50.138;14.332;2023-03-23T00:16:17;6.07;;;3.58;;
75716;SDS011;64333;50.138;14.332;2023-03-23T00:18:46;6.47;;;3.65;;
75716;SDS011;64333;50.138;14.332;2023-03-23T00:21:12;5.38;;;3.78;;
75716;SDS011;64333;50.138;14.332;2023-03-23T00:23:37;5.03;;;3.60;;
75716;SDS011;64333;50.138;14.332;2023-03-23T00:26:04;5.03;;;3.67;;
75716;SDS011;64333;50.138;14.332;2023-03-23T00:28:29;6.28;;;3.88;;
75716;SDS011;64333;50.138;14.332;2023-03-23T00:30:55;4.73;;;3.70;;
75716;SDS011;64333;50.138;14.332;2023-03-23T00:33:22;5.38;;;3.20;;
75716;SDS011;64333;50.138;14.332;2023-03-23T00:35:47;5.85;;;3.50;;
75716;SDS011;64333;50.138;14.332;2023-03-23T00:38:13;4.57;;;3.30;;
75716;SDS011;64333;50.138;14.332;2023-03-23T00:40:39;3.70;;;3.10;;
75716;SDS011;64333;50.138;14.332;2023-03-23T00:43:04;5.67;;;3.53;;
75716;SDS011;64333;50.138;14.332;2023-03-23T00:45:29;5.73;;;3.63;;
75716;SDS011;64333;50.138;14.332;2023-03-23T00:47:54;4.90;;;3.53;;
75716;SDS011;64333;50.138;14.332;2023-03-23T00:50:21;4.13;;;3.00;;
75716;SDS011;64333;50.138;14.332;2023-03-23T00:52:46;3.87;;;3.00;;
75716;SDS011;64333;50.138;14.332;2023-03-23T00:55:11;6.57;;;3.45;;
75716;SDS011;64333;50.138;14.332;2023-03-23T00:57:37;5.10;;;3.10;;
75716;SDS011;64333;50.138;14.332;2023-03-23T01:00:02;3.93;;;2.57;;
75716;SDS011;64333;50.138;14.332;2023-03-23T01:02:33;5.13;;;2.67;;
75716;SDS011;64333;50.138;14.332;2023-03-23T01:05:00;4.82;;;3.10;;
75716;SDS011;64333;50.138;14.332;2023-03-23T01:07:25;4.17;;;2.60;;
75716;SDS011;64333;50.138;14.332;2023-03-23T01:09:53;6.45;;;2.88;;
75716;SDS011;64333;50.138;14.332;2023-03-23T01:12:19;4.72;;;3.13;;
75716;SDS011;64333;50.138;14.332;2023-03-23T01:14:44;4.60;;;2.97;;
75716;SDS011;64333;50.138;14.332;2023-03-23T01:17:09;2.87;;;2.30;;
75716;SDS011;64333;50.138;14.332;2023-03-23T01:19:34;5.03;;;2.37;;
75716;SDS011;64333;50.138;14.332;2023-03-23T01:22:00;3.38;;;2.17;;
75716;SDS011;64333;50.138;14.332;2023-03-23T01:24:25;3.38;;;2.45;;
75716;SDS011;64333;50.138;14.332;2023-03-23T01:26:50;4.33;;;2.50;;
75716;SDS011;64333;50.138;14.332;2023-03-23T01:29:15;3.90;;;2.53;;
75716;SDS011;64333;50.138;14.332;2023-03-23T01:31:41;3.23;;;2.30;;
75716;SDS011;64333;50.138;14.332;2023-03-23T01:34:07;4.95;;;2.35;;
75716;SDS011;64333;50.138;14.332;2023-03-23T01:36:33;2.90;;;2.53;;
75716;SDS011;64333;50.138;14.332;2023-03-23T01:38:59;4.30;;;2.95;;
75716;SDS011;64333;50.138;14.332;2023-03-23T01:41:25;3.40;;;2.33;;
75716;SDS011;64333;50.138;14.332;2023-03-23T01:44:04;3.23;;;2.67;;
75716;SDS011;64333;50.138;14.332;2023-03-23T01:46:34;7.70;;;3.00;;
75716;SDS011;64333;50.138;14.332;2023-03-23T01:49:06;3.22;;;2.55;;
75716;SDS011;64333;50.138;14.332;2023-03-23T01:51:34;4.07;;;2.60;;
75716;SDS011;64333;50.138;14.332;2023-03-23T01:54:01;4.53;;;2.85;;
75716;SDS011;64333;50.138;14.332;2023-03-23T01:56:29;4.80;;;2.67;;
75716;SDS011;64333;50.138;14.332;2023-03-23T01:58:57;4.13;;;2.33;;
75716;SDS011;64333;50.138;14.332;2023-03-23T02:01:23;5.03;;;2.93;;
75716;SDS011;64333;50.138;14.332;2023-03-23T02:03:50;3.63;;;2.83;;
75716;SDS011;64333;50.138;14.332;2023-03-23T02:06:16;3.45;;;2.50;;
75716;SDS011;64333;50.138;14.332;2023-03-23T02:08:41;3.17;;;2.67;;
75716;SDS011;64333;50.138;14.332;2023-03-23T02:11:13;3.28;;;2.45;;
75716;SDS011;64333;50.138;14.332;2023-03-23T02:13:39;4.05;;;2.70;;
75716;SDS011;64333;50.138;14.332;2023-03-23T02:16:15;4.35;;;2.80;;
75716;SDS011;64333;50.138;14.332;2023-03-23T02:24:28;4.40;;;2.83;;
75716;SDS011;64333;50.138;14.332;2023-03-23T02:29:07;3.45;;;3.15;;
75716;SDS011;64333;50.138;14.332;2023-03-23T02:31:43;3.70;;;2.83;;
75716;SDS011;64333;50.138;14.332;2023-03-23T02:34:18;5.15;;;2.80;;
75716;SDS011;64333;50.138;14.332;2023-03-23T02:36:46;5.05;;;2.90;;
75716;SDS011;64333;50.138;14.332;2023-03-23T02:39:14;3.28;;;2.55;;
75716;SDS011;64333;50.138;14.332;2023-03-23T02:41:44;4.70;;;2.47;;
75716;SDS011;64333;50.138;14.332;2023-03-23T02:44:09;4.88;;;2.90;;
75716;SDS011;64333;50.138;14.332;2023-03-23T02:46:35;5.43;;;2.78;;
75716;SDS011;64333;50.138;14.332;2023-03-23T02:49:01;4.15;;;2.90;;
75716;SDS011;64333;50.138;14.332;2023-03-23T02:51:27;4.05;;;2.50;;
75716;SDS011;64333;50.138;14.332;2023-03-23T02:53:54;3.88;;;2.60;;
75716;SDS011;64333;50.138;14.332;2023-03-23T02:56:20;3.63;;;2.55;;
75716;SDS011;64333;50.138;14.332;2023-03-23T02:58:46;5.18;;;2.47;;
75716;SDS011;64333;50.138;14.332;2023-03-23T03:01:16;4.78;;;2.80;;
75716;SDS011;64333;50.138;14.332;2023-03-23T03:03:58;4.30;;;2.80;;
75716;SDS011;64333;50.138;14.332;2023-03-23T03:11:31;3.93;;;3.47;;
75716;SDS011;64333;50.138;14.332;2023-03-23T03:13:59;3.97;;;2.60;;
75716;SDS011;64333;50.138;14.332;2023-03-23T03:19:08;5.00;;;3.20;;
75716;SDS011;64333;50.138;14.332;2023-03-23T03:21:37;5.03;;;2.88;;
75716;SDS011;64333;50.138;14.332;2023-03-23T03:24:04;4.70;;;2.83;;
75716;SDS011;64333;50.138;14.332;2023-03-23T03:26:33;4.07;;;2.67;;
75716;SDS011;64333;50.138;14.332;2023-03-23T03:28:59;4.47;;;2.85;;
75716;SDS011;64333;50.138;14.332;2023-03-23T03:31:29;3.10;;;2.80;;
75716;SDS011;64333;50.138;14.332;2023-03-23T03:33:54;4.05;;;3.08;;
75716;SDS011;64333;50.138;14.332;2023-03-23T03:36:21;5.20;;;3.42;;
75716;SDS011;64333;50.138;14.332;2023-03-23T03:38:49;4.40;;;3.08;;
75716;SDS011;64333;50.138;14.332;2023-03-23T03:41:14;5.05;;;3.50;;
75716;SDS011;64333;50.138;14.332;2023-03-23T03:43:40;6.05;;;4.50;;
75716;SDS011;64333;50.138;14.332;2023-03-23T03:46:05;5.60;;;4.00;;
75716;SDS011;64333;50.138;14.332;2023-03-23T03:48:30;6.83;;;3.93;;
75716;SDS011;64333;50.138;14.332;2023-03-23T03:50:56;10.10;;;5.90;;
75716;SDS011;64333;50.138;14.332;2023-03-23T03:53:24;5.80;;;3.30;;
75716;SDS011;64333;50.138;14.332;2023-03-23T03:55:49;6.15;;;3.47;;
75716;SDS011;64333;50.138;14.332;2023-03-23T03:58:15;4.88;;;3.08;;
75716;SDS011;64333;50.138;14.332;2023-03-23T04:00:41;6.43;;;3.17;;
75716;SDS011;64333;50.138;14.332;2023-03-23T04:03:07;4.63;;;3.33;;
75716;SDS011;64333;50.138;14.332;2023-03-23T04:05:32;4.65;;;3.45;;
75716;SDS011;64333;50.138;14.332;2023-03-23T04:07:58;4.70;;;3.28;;
75716;SDS011;64333;50.138;14.332;2023-03-23T04:10:27;5.60;;;3.72;;
75716;SDS011;64333;50.138;14.332;2023-03-23T04:12:52;4.32;;;3.30;;
75716;SDS011;64333;50.138;14.332;2023-03-23T04:15:17;5.47;;;3.13;;
75716;SDS011;64333;50.138;14.332;2023-03-23T04:17:43;4.37;;;3.13;;
75716;SDS011;64333;50.138;14.332;2023-03-23T04:20:08;4.20;;;3.20;;
75716;SDS011;64333;50.138;14.332;2023-03-23T04:22:39;5.10;;;3.38;;
75716;SDS011;64333;50.138;14.332;2023-03-23T04:25:08;5.97;;;3.60;;
75716;SDS011;64333;50.138;14.332;2023-03-23T04:27:36;4.50;;;2.58;;
75716;SDS011;64333;50.138;14.332;2023-03-23T04:30:01;3.88;;;2.70;;
75716;SDS011;64333;50.138;14.332;2023-03-23T04:32:28;5.28;;;3.22;;
75716;SDS011;64333;50.138;14.332;2023-03-23T04:34:57;5.40;;;2.90;;
75716;SDS011;64333;50.138;14.332;2023-03-23T04:37:26;4.32;;;2.92;;
75716;SDS011;64333;50.138;14.332;2023-03-23T04:39:53;4.00;;;2.78;;
75716;SDS011;64333;50.138;14.332;2023-03-23T04:42:28;6.13;;;3.10;;
75716;SDS011;64333;50.138;14.332;2023-03-23T04:44:55;6.50;;;3.33;;
75716;SDS011;64333;50.138;14.332;2023-03-23T04:47:20;4.18;;;3.47;;
75716;SDS011;64333;50.138;14.332;2023-03-23T04:49:46;4.32;;;3.30;;
75716;SDS011;64333;50.138;14.332;2023-03-23T04:52:11;4.53;;;3.40;;
75716;SDS011;64333;50.138;14.332;2023-03-23T04:54:36;4.27;;;3.13;;
75716;SDS011;64333;50.138;14.332;2023-03-23T04:57:02;5.05;;;3.25;;
75716;SDS011;64333;50.138;14.332;2023-03-23T04:59:28;4.22;;;3.15;;
75716;SDS011;64333;50.138;14.332;2023-03-23T05:01:55;5.88;;;3.17;;
75716;SDS011;64333;50.138;14.332;2023-03-23T05:04:21;4.97;;;3.20;;
75716;SDS011;64333;50.138;14.332;2023-03-23T05:06:47;5.55;;;3.25;;
75716;SDS011;64333;50.138;14.332;2023-03-23T05:09:13;6.32;;;3.90;;
75716;SDS011;64333;50.138;14.332;2023-03-23T05:11:38;5.05;;;2.70;;
75716;SDS011;64333;50.138;14.332;2023-03-23T05:14:04;3.83;;;2.83;;
75716;SDS011;64333;50.138;14.332;2023-03-23T05:16:30;3.58;;;2.33;;
75716;SDS011;64333;50.138;14.332;2023-03-23T05:18:55;4.10;;;2.90;;
75716;SDS011;64333;50.138;14.332;2023-03-23T05:21:22;4.68;;;2.88;;
75716;SDS011;64333;50.138;14.332;2023-03-23T05:23:47;4.20;;;2.80;;
75716;SDS011;64333;50.138;14.332;2023-03-23T05:26:19;3.58;;;2.33;;
75716;SDS011;64333;50.138;14.332;2023-03-23T05:28:44;3.42;;;2.30;;
75716;SDS011;64333;50.138;14.332;2023-03-23T05:31:10;3.03;;;2.03;;
75716;SDS011;64333;50.138;14.332;2023-03-23T05:33:35;3.57;;;2.17;;
75716;SDS011;64333;50.138;14.332;2023-03-23T05:36:01;3.72;;;2.58;;
75716;SDS011;64333;50.138;14.332;2023-03-23T05:38:28;2.45;;;2.00;;
75716;SDS011;64333;50.138;14.332;2023-03-23T05:40:54;3.97;;;2.40;;
75716;SDS011;64333;50.138;14.332;2023-03-23T05:43:19;5.03;;;2.63;;
75716;SDS011;64333;50.138;14.332;2023-03-23T05:45:44;6.00;;;2.28;;
75716;SDS011;64333;50.138;14.332;2023-03-23T05:48:11;2.80;;;2.28;;
75716;SDS011;64333;50.138;14.332;2023-03-23T05:50:36;3.97;;;2.57;;
75716;SDS011;64333;50.138;14.332;2023-03-23T05:53:01;3.08;;;2.60;;
75716;SDS011;64333;50.138;14.332;2023-03-23T05:55:29;3.13;;;2.00;;
75716;SDS011;64333;50.138;14.332;2023-03-23T05:57:54;2.27;;;1.70;;
75716;SDS011;64333;50.138;14.332;2023-03-23T06:00:19;3.37;;;2.43;;
75716;SDS011;64333;50.138;14.332;2023-03-23T06:02:48;3.88;;;2.20;;
75716;SDS011;64333;50.138;14.332;2023-03-23T06:05:13;3.83;;;2.28;;
75716;SDS011;64333;50.138;14.332;2023-03-23T06:07:40;3.00;;;2.15;;
75716;SDS011;64333;50.138;14.332;2023-03-23T06:10:06;3.13;;;2.30;;
75716;SDS011;64333;50.138;14.332;2023-03-23T06:12:32;4.22;;;1.83;;
75716;SDS011;64333;50.138;14.332;2023-03-23T06:14:57;3.00;;;2.40;;
75716;SDS011;64333;50.138;14.332;2023-03-23T06:17:23;4.00;;;2.60;;
75716;SDS011;64333;50.138;14.332;2023-03-23T06:19:48;3.03;;;2.33;;
75716;SDS011;64333;50.138;14.332;2023-03-23T06:22:15;3.10;;;2.13;;
75716;SDS011;64333;50.138;14.332;2023-03-23T06:24:41;2.83;;;1.95;;
75716;SDS011;64333;50.138;14.332;2023-03-23T06:27:06;4.17;;;2.37;;
75716;SDS011;64333;50.138;14.332;2023-03-23T06:29:33;3.38;;;2.20;;
75716;SDS011;64333;50.138;14.332;2023-03-23T06:31:59;3.47;;;2.45;;
75716;SDS011;64333;50.138;14.332;2023-03-23T06:34:25;3.75;;;1.95;;
75716;SDS011;64333;50.138;14.332;2023-03-23T06:36:50;4.63;;;2.63;;
75716;SDS011;64333;50.138;14.332;2023-03-23T06:39:16;3.85;;;2.05;;
75716;SDS011;64333;50.138;14.332;2023-03-23T06:41:41;1.67;;;1.53;;
75716;SDS011;64333;50.138;14.332;2023-03-23T06:44:07;2.20;;;1.50;;
75716;SDS011;64333;50.138;14.332;2023-03-23T06:46:33;2.90;;;2.08;;
75716;SDS011;64333;50.138;14.332;2023-03-23T06:48:58;2.58;;;1.60;;
75716;SDS011;64333;50.138;14.332;2023-03-23T06:51:24;2.70;;;1.90;;
75716;SDS011;64333;50.138;14.332;2023-03-23T06:53:49;2.92;;;2.00;;
75716;SDS011;64333;50.138;14.332;2023-03-23T06:56:15;2.30;;;1.60;;
75716;SDS011;64333;50.138;14.332;2023-03-23T06:58:41;3.88;;;1.63;;
75716;SDS011;64333;50.138;14.332;2023-03-23T07:01:10;3.88;;;2.28;;
75716;SDS011;64333;50.138;14.332;2023-03-23T07:03:36;2.50;;;1.67;;
75716;SDS011;64333;50.138;14.332;2023-03-23T07:06:01;2.97;;;1.67;;
75716;SDS011;64333;50.138;14.332;2023-03-23T07:08:28;2.45;;;1.58;;
75716;SDS011;64333;50.138;14.332;2023-03-23T07:10:53;3.37;;;1.40;;
75716;SDS011;64333;50.138;14.332;2023-03-23T07:13:19;2.95;;;1.25;;
75716;SDS011;64333;50.138;14.332;2023-03-23T07:15:44;1.83;;;1.48;;
75716;SDS011;64333;50.138;14.332;2023-03-23T07:18:10;2.05;;;1.10;;
75716;SDS011;64333;50.138;14.332;2023-03-23T07:20:35;1.52;;;1.17;;
75716;SDS011;64333;50.138;14.332;2023-03-23T07:23:01;2.30;;;1.42;;
75716;SDS011;64333;50.138;14.332;2023-03-23T07:25:27;2.45;;;1.77;;
75716;SDS011;64333;50.138;14.332;2023-03-23T07:27:52;3.60;;;1.40;;
75716;SDS011;64333;50.138;14.332;2023-03-23T07:30:17;1.80;;;1.50;;
75716;SDS011;64333;50.138;14.332;2023-03-23T07:32:43;1.37;;;1.10;;
75716;SDS011;64333;50.138;14.332;2023-03-23T07:35:08;3.75;;;1.27;;
75716;SDS011;64333;50.138;14.332;2023-03-23T07:37:34;5.18;;;1.30;;
75716;SDS011;64333;50.138;14.332;2023-03-23T07:40:00;1.50;;;1.40;;
75716;SDS011;64333;50.138;14.332;2023-03-23T07:42:36;2.30;;;1.30;;
75716;SDS011;64333;50.138;14.332;2023-03-23T07:45:01;2.60;;;1.33;;
75716;SDS011;64333;50.138;14.332;2023-03-23T07:47:27;2.83;;;1.42;;
75716;SDS011;64333;50.138;14.332;2023-03-23T07:49:52;1.70;;;1.20;;
75716;SDS011;64333;50.138;14.332;2023-03-23T07:52:17;1.52;;;1.20;;
75716;SDS011;64333;50.138;14.332;2023-03-23T07:54:43;2.40;;;1.73;;
75716;SDS011;64333;50.138;14.332;2023-03-23T07:57:08;2.43;;;1.90;;
75716;SDS011;64333;50.138;14.332;2023-03-23T07:59:33;3.53;;;1.97;;
75716;SDS011;64333;50.138;14.332;2023-03-23T08:01:58;2.93;;;1.70;;
75716;SDS011;64333;50.138;14.332;2023-03-23T08:04:24;3.75;;;2.25;;
75716;SDS011;64333;50.138;14.332;2023-03-23T08:06:49;4.05;;;1.60;;
75716;SDS011;64333;50.138;14.332;2023-03-23T08:09:14;2.83;;;1.43;;
75716;SDS011;64333;50.138;14.332;2023-03-23T08:11:40;2.67;;;1.70;;
75716;SDS011;64333;50.138;14.332;2023-03-23T08:14:06;3.85;;;1.95;;
75716;SDS011;64333;50.138;14.332;2023-03-23T08:16:31;4.97;;;2.63;;
75716;SDS011;64333;50.138;14.332;2023-03-23T08:18:57;2.08;;;1.30;;
75716;SDS011;64333;50.138;14.332;2023-03-23T08:21:23;1.80;;;1.27;;
75716;SDS011;64333;50.138;14.332;2023-03-23T08:23:48;3.20;;;1.52;;
75716;SDS011;64333;50.138;14.332;2023-03-23T08:26:13;2.83;;;1.70;;
75716;SDS011;64333;50.138;14.332;2023-03-23T08:28:40;3.03;;;1.42;;
75716;SDS011;64333;50.138;14.332;2023-03-23T08:31:09;2.30;;;1.38;;
75716;SDS011;64333;50.138;14.332;2023-03-23T08:33:35;1.92;;;1.30;;
75716;SDS011;64333;50.138;14.332;2023-03-23T08:36:01;1.48;;;1.35;;
75716;SDS011;64333;50.138;14.332;2023-03-23T08:38:26;1.73;;;1.30;;
75716;SDS011;64333;50.138;14.332;2023-03-23T08:40:56;2.00;;;1.30;;
75716;SDS011;64333;50.138;14.332;2023-03-23T08:43:22;1.40;;;1.30;;
75716;SDS011;64333;50.138;14.332;2023-03-23T08:45:47;1.85;;;1.30;;
75716;SDS011;64333;50.138;14.332;2023-03-23T08:48:12;2.97;;;1.17;;
75716;SDS011;64333;50.138;14.332;2023-03-23T08:50:38;1.85;;;1.33;;
75716;SDS011;64333;50.138;14.332;2023-03-23T08:53:03;1.90;;;1.50;;
75716;SDS011;64333;50.138;14.332;2023-03-23T08:55:29;1.73;;;1.43;;
75716;SDS011;64333;50.138;14.332;2023-03-23T08:57:54;3.83;;;1.40;;
75716;SDS011;64333;50.138;14.332;2023-03-23T09:00:20;2.08;;;1.38;;
75716;SDS011;64333;50.138;14.332;2023-03-23T09:02:47;1.98;;;1.58;;
75716;SDS011;64333;50.138;14.332;2023-03-23T09:05:14;1.30;;;1.20;;
75716;SDS011;64333;50.138;14.332;2023-03-23T09:07:42;2.97;;;1.38;;
75716;SDS011;64333;50.138;14.332;2023-03-23T09:10:08;1.27;;;1.10;;
75716;SDS011;64333;50.138;14.332;2023-03-23T09:12:34;1.83;;;1.30;;
75716;SDS011;64333;50.138;14.332;2023-03-23T09:15:00;3.50;;;1.33;;
75716;SDS011;64333;50.138;14.332;2023-03-23T09:19:56;2.67;;;1.60;;
75716;SDS011;64333;50.138;14.332;2023-03-23T09:22:21;7.07;;;4.10;;
75716;SDS011;64333;50.138;14.332;2023-03-23T09:24:48;8.20;;;3.67;;
75716;SDS011;64333;50.138;14.332;2023-03-23T09:27:13;14.07;;;7.35;;
75716;SDS011;64333;50.138;14.332;2023-03-23T09:29:39;3.28;;;1.83;;
75716;SDS011;64333;50.138;14.332;2023-03-23T09:32:05;3.78;;;1.92;;
75716;SDS011;64333;50.138;14.332;2023-03-23T09:34:32;2.17;;;1.40;;
75716;SDS011;64333;50.138;14.332;2023-03-23T09:37:00;1.63;;;1.35;;
75716;SDS011;64333;50.138;14.332;2023-03-23T09:39:29;1.98;;;1.52;;
75716;SDS011;64333;50.138;14.332;2023-03-23T09:41:58;1.55;;;1.23;;
75716;SDS011;64333;50.138;14.332;2023-03-23T09:49:32;1.60;;;1.00;;
75716;SDS011;64333;50.138;14.332;2023-03-23T09:52:01;1.58;;;1.10;;
75716;SDS011;64333;50.138;14.332;2023-03-23T09:54:34;2.10;;;1.10;;
75716;SDS011;64333;50.138;14.332;2023-03-23T09:57:01;1.80;;;1.02;;
75716;SDS011;64333;50.138;14.332;2023-03-23T09:59:30;3.15;;;1.25;;
75716;SDS011;64333;50.138;14.332;2023-03-23T10:02:02;2.20;;;1.05;;
75716;SDS011;64333;50.138;14.332;2023-03-23T10:04:36;2.67;;;1.10;;
75716;SDS011;64333;50.138;14.332;2023-03-23T10:07:09;3.20;;;1.40;;
75716;SDS011;64333;50.138;14.332;2023-03-23T10:09:35;1.52;;;1.08;;
75716;SDS011;64333;50.138;14.332;2023-03-23T10:12:09;2.17;;;1.00;;
75716;SDS011;64333;50.138;14.332;2023-03-23T10:17:20;1.20;;;1.05;;
75716;SDS011;64333;50.138;14.332;2023-03-23T10:22:39;1.20;;;1.05;;
75716;SDS011;64333;50.138;14.332;2023-03-23T10:27:33;1.17;;;0.90;;
75716;SDS011;64333;50.138;14.332;2023-03-23T10:32:43;1.63;;;0.80;;
75716;SDS011;64333;50.138;14.332;2023-03-23T10:35:19;1.63;;;1.40;;
75716;SDS011;64333;50.138;14.332;2023-03-23T10:37:50;1.25;;;1.15;;
75716;SDS011;64333;50.138;14.332;2023-03-23T10:40:19;1.73;;;1.55;;
75716;SDS011;64333;50.138;14.332;2023-03-23T10:42:48;2.40;;;1.20;;
75716;SDS011;64333;50.138;14.332;2023-03-23T10:47:44;2.15;;;1.20;;
75716;SDS011;64333;50.138;14.332;2023-03-23T10:50:14;2.13;;;1.10;;
75716;SDS011;64333;50.138;14.332;2023-03-23T10:52:41;1.65;;;1.27;;
75716;SDS011;64333;50.138;14.332;2023-03-23T10:55:11;2.17;;;1.48;;
75716;SDS011;64333;50.138;14.332;2023-03-23T11:00:06;1.95;;;1.25;;
75716;SDS011;64333;50.138;14.332;2023-03-23T11:02:42;3.10;;;1.30;;
75716;SDS011;64333;50.138;14.332;2023-03-23T11:05:18;3.58;;;1.30;;
75716;SDS011;64333;50.138;14.332;2023-03-23T11:07:48;3.17;;;1.20;;
75716;SDS011;64333;50.138;14.332;2023-03-23T11:10:21;1.63;;;1.10;;
75716;SDS011;64333;50.138;14.332;2023-03-23T11:12:46;2.47;;;1.27;;
75716;SDS011;64333;50.138;14.332;2023-03-23T11:17:43;2.05;;;1.20;;
75716;SDS011;64333;50.138;14.332;2023-03-23T11:20:20;1.95;;;1.10;;
75716;SDS011;64333;50.138;14.332;2023-03-23T11:22:45;2.17;;;1.10;;
75716;SDS011;64333;50.138;14.332;2023-03-23T11:25:12;1.40;;;1.30;;
75716;SDS011;64333;50.138;14.332;2023-03-23T11:27:38;1.90;;;1.25;;
75716;SDS011;64333;50.138;14.332;2023-03-23T11:30:11;3.20;;;1.60;;
75716;SDS011;64333;50.138;14.332;2023-03-23T11:32:37;1.20;;;0.98;;
75716;SDS011;64333;50.138;14.332;2023-03-23T11:35:04;1.40;;;1.30;;
75716;SDS011;64333;50.138;14.332;2023-03-23T11:37:40;1.77;;;1.67;;
75716;SDS011;64333;50.138;14.332;2023-03-23T11:42:42;2.22;;;1.17;;
75716;SDS011;64333;50.138;14.332;2023-03-23T11:47:40;1.40;;;1.30;;
75716;SDS011;64333;50.138;14.332;2023-03-23T11:50:10;1.60;;;1.20;;
75716;SDS011;64333;50.138;14.332;2023-03-23T11:52:45;1.92;;;0.90;;
75716;SDS011;64333;50.138;14.332;2023-03-23T11:55:15;1.42;;;1.15;;
75716;SDS011;64333;50.138;14.332;2023-03-23T11:57:42;1.52;;;1.10;;
75716;SDS011;64333;50.138;14.332;2023-03-23T12:00:11;1.58;;;1.35;;
75716;SDS011;64333;50.138;14.332;2023-03-23T12:02:42;1.65;;;1.25;;
75716;SDS011;64333;50.138;14.332;2023-03-23T12:12:52;2.33;;;1.40;;
75716;SDS011;64333;50.138;14.332;2023-03-23T12:15:38;1.98;;;1.35;;
75716;SDS011;64333;50.138;14.332;2023-03-23T12:18:21;1.85;;;1.40;;
75716;SDS011;64333;50.138;14.332;2023-03-23T12:33:37;2.78;;;1.35;;
75716;SDS011;64333;50.138;14.332;2023-03-23T12:41:17;2.90;;;1.20;;
75716;SDS011;64333;50.138;14.332;2023-03-23T12:48:51;1.92;;;1.17;;
75716;SDS011;64333;50.138;14.332;2023-03-23T12:51:36;2.10;;;1.10;;
75716;SDS011;64333;50.138;14.332;2023-03-23T12:59:08;1.50;;;1.20;;
75716;SDS011;64333;50.138;14.332;2023-03-23T13:01:39;1.00;;;0.95;;
75716;SDS011;64333;50.138;14.332;2023-03-23T13:04:10;4.15;;;1.85;;
75716;SDS011;64333;50.138;14.332;2023-03-23T13:06:40;1.77;;;1.25;;
75716;SDS011;64333;50.138;14.332;2023-03-23T13:09:13;1.58;;;1.30;;
75716;SDS011;64333;50.138;14.332;2023-03-23T13:11:40;1.65;;;1.08;;
75716;SDS011;64333;50.138;14.332;2023-03-23T13:20:03;2.78;;;1.05;;
75716;SDS011;64333;50.138;14.332;2023-03-23T13:22:58;1.52;;;1.23;;
75716;SDS011;64333;50.138;14.332;2023-03-23T13:27:57;2.13;;;1.30;;
75716;SDS011;64333;50.138;14.332;2023-03-23T13:30:23;1.90;;;1.27;;
75716;SDS011;64333;50.138;14.332;2023-03-23T13:33:02;1.80;;;1.33;;
75716;SDS011;64333;50.138;14.332;2023-03-23T13:35:32;2.72;;;1.10;;
75716;SDS011;64333;50.138;14.332;2023-03-23T13:37:58;1.50;;;1.25;;
75716;SDS011;64333;50.138;14.332;2023-03-23T13:42:54;2.90;;;1.30;;
75716;SDS011;64333;50.138;14.332;2023-03-23T13:47:48;1.75;;;1.65;;
75716;SDS011;64333;50.138;14.332;2023-03-23T13:55:20;1.80;;;1.25;;
75716;SDS011;64333;50.138;14.332;2023-03-23T14:08:22;1.80;;;1.38;;
75716;SDS011;64333;50.138;14.332;2023-03-23T14:15:42;3.00;;;1.48;;
75716;SDS011;64333;50.138;14.332;2023-03-23T14:18:11;3.88;;;1.92;;
75716;SDS011;64333;50.138;14.332;2023-03-23T14:20:38;2.95;;;1.65;;
75716;SDS011;64333;50.138;14.332;2023-03-23T14:23:04;4.30;;;2.45;;
75716;SDS011;64333;50.138;14.332;2023-03-23T14:25:30;3.72;;;1.98;;
75716;SDS011;64333;50.138;14.332;2023-03-23T14:27:57;2.28;;;1.63;;
75716;SDS011;64333;50.138;14.332;2023-03-23T14:30:23;3.00;;;2.03;;
75716;SDS011;64333;50.138;14.332;2023-03-23T14:32:50;4.13;;;2.25;;
75716;SDS011;64333;50.138;14.332;2023-03-23T14:35:19;3.40;;;2.17;;
75716;SDS011;64333;50.138;14.332;2023-03-23T14:37:44;3.38;;;1.92;;
75716;SDS011;64333;50.138;14.332;2023-03-23T14:40:15;4.53;;;2.28;;
75716;SDS011;64333;50.138;14.332;2023-03-23T14:42:40;4.47;;;2.50;;
75716;SDS011;64333;50.138;14.332;2023-03-23T14:45:06;4.43;;;2.30;;
75716;SDS011;64333;50.138;14.332;2023-03-23T14:47:33;3.38;;;1.40;;
75716;SDS011;64333;50.138;14.332;2023-03-23T14:50:00;3.42;;;2.25;;
75716;SDS011;64333;50.138;14.332;2023-03-23T14:52:28;3.10;;;1.77;;
75716;SDS011;64333;50.138;14.332;2023-03-23T14:54:54;1.77;;;1.48;;
75716;SDS011;64333;50.138;14.332;2023-03-23T14:59:45;1.83;;;1.50;;
75716;SDS011;64333;50.138;14.332;2023-03-23T15:02:12;2.05;;;1.40;;
75716;SDS011;64333;50.138;14.332;2023-03-23T15:04:39;1.90;;;1.38;;
75716;SDS011;64333;50.138;14.332;2023-03-23T15:07:04;3.47;;;1.65;;
75716;SDS011;64333;50.138;14.332;2023-03-23T15:09:30;1.80;;;1.45;;
75716;SDS011;64333;50.138;14.332;2023-03-23T15:12:00;1.73;;;1.50;;
75716;SDS011;64333;50.138;14.332;2023-03-23T15:16:52;1.45;;;1.27;;
75716;SDS011;64333;50.138;14.332;2023-03-23T15:19:19;2.13;;;1.40;;
75716;SDS011;64333;50.138;14.332;2023-03-23T15:21:50;1.65;;;1.55;;
75716;SDS011;64333;50.138;14.332;2023-03-23T15:26:44;2.15;;;1.55;;
75716;SDS011;64333;50.138;14.332;2023-03-23T15:29:11;2.45;;;2.25;;
75716;SDS011;64333;50.138;14.332;2023-03-23T15:31:44;2.28;;;1.60;;
75716;SDS011;64333;50.138;14.332;2023-03-23T15:34:18;2.85;;;1.45;;
75716;SDS011;64333;50.138;14.332;2023-03-23T15:36:45;1.60;;;1.40;;
75716;SDS011;64333;50.138;14.332;2023-03-23T15:39:11;2.80;;;1.58;;
75716;SDS011;64333;50.138;14.332;2023-03-23T15:41:45;2.40;;;1.70;;
75716;SDS011;64333;50.138;14.332;2023-03-23T15:44:11;1.60;;;1.40;;
75716;SDS011;64333;50.138;14.332;2023-03-23T15:46:47;2.05;;;1.50;;
75716;SDS011;64333;50.138;14.332;2023-03-23T15:49:12;1.52;;;1.20;;
75716;SDS011;64333;50.138;14.332;2023-03-23T15:51:40;2.72;;;1.40;;
75716;SDS011;64333;50.138;14.332;2023-03-23T15:54:07;2.10;;;1.27;;
75716;SDS011;64333;50.138;14.332;2023-03-23T15:56:34;2.70;;;1.90;;
75716;SDS011;64333;50.138;14.332;2023-03-23T15:58:59;2.20;;;1.58;;
75716;SDS011;64333;50.138;14.332;2023-03-23T16:01:28;3.20;;;2.00;;
75716;SDS011;64333;50.138;14.332;2023-03-23T16:06:27;2.72;;;1.90;;
75716;SDS011;64333;50.138;14.332;2023-03-23T16:08:54;2.28;;;1.70;;
75716;SDS011;64333;50.138;14.332;2023-03-23T16:11:19;2.30;;;1.50;;
75716;SDS011;64333;50.138;14.332;2023-03-23T16:13:45;2.22;;;1.45;;
75716;SDS011;64333;50.138;14.332;2023-03-23T16:16:12;1.30;;;1.17;;
75716;SDS011;64333;50.138;14.332;2023-03-23T16:18:38;1.80;;;1.50;;
75716;SDS011;64333;50.138;14.332;2023-03-23T16:21:03;1.70;;;1.20;;
75716;SDS011;64333;50.138;14.332;2023-03-23T16:23:29;1.85;;;1.23;;
75716;SDS011;64333;50.138;14.332;2023-03-23T16:25:54;2.77;;;1.70;;
75716;SDS011;64333;50.138;14.332;2023-03-23T16:28:19;1.52;;;1.40;;
75716;SDS011;64333;50.138;14.332;2023-03-23T16:30:45;1.60;;;1.17;;
75716;SDS011;64333;50.138;14.332;2023-03-23T16:33:10;1.75;;;1.20;;
75716;SDS011;64333;50.138;14.332;2023-03-23T16:35:36;1.37;;;1.07;;
75716;SDS011;64333;50.138;14.332;2023-03-23T16:38:01;1.80;;;1.20;;
75716;SDS011;64333;50.138;14.332;2023-03-23T16:40:27;1.40;;;1.25;;